createdAt,value
2022-12-22T00:00:28.903Z,2.70
2022-12-22T00:03:15.048Z,2.70
2022-12-22T00:06:00.679Z,2.70
2022-12-22T00:08:46.426Z,2.70
2022-12-22T00:11:33.358Z,2.70
2022-12-22T00:14:19.062Z,2.70
2022-12-22T00:17:05.211Z,2.70
2022-12-22T00:19:51.021Z,2.70
2022-12-22T00:22:38.753Z,2.70
2022-12-22T00:25:24.562Z,2.70
2022-12-22T00:28:11.521Z,2.70
2022-12-22T00:30:57.296Z,2.70
2022-12-22T00:33:43.158Z,2.70
2022-12-22T00:36:31.181Z,2.70
2022-12-22T00:39:16.806Z,2.70
2022-12-22T00:42:02.514Z,2.70
2022-12-22T00:44:49.352Z,2.70
2022-12-22T00:47:38.262Z,2.70
2022-12-22T00:50:24.453Z,2.70
2022-12-22T00:53:09.986Z,2.70
2022-12-22T00:55:55.445Z,2.70
2022-12-22T00:58:41.257Z,2.70
2022-12-22T01:01:30.889Z,2.70
2022-12-22T01:04:16.635Z,2.70
2022-12-22T01:07:04.545Z,2.70
2022-12-22T01:09:50.457Z,2.70
2022-12-22T01:12:38.168Z,2.80
2022-12-22T01:15:28.376Z,2.70
2022-12-22T01:18:15.130Z,2.70
2022-12-22T01:21:00.836Z,2.70
2022-12-22T01:23:46.837Z,2.70
2022-12-22T01:26:35.030Z,2.70
2022-12-22T01:29:20.681Z,2.80
2022-12-22T01:32:06.298Z,2.80
2022-12-22T01:34:53.806Z,2.80
2022-12-22T01:37:39.550Z,2.70
2022-12-22T01:40:32.060Z,2.70
2022-12-22T01:43:20.892Z,2.70
2022-12-22T01:46:06.618Z,2.80
2022-12-22T01:48:52.517Z,2.70
2022-12-22T01:51:42.321Z,2.80
2022-12-22T01:54:28.555Z,2.80
2022-12-22T01:57:14.252Z,2.80
2022-12-22T02:00:00.109Z,2.80
2022-12-22T02:02:46.562Z,2.80
2022-12-22T02:05:33.861Z,2.80
2022-12-22T02:08:27.168Z,2.90
2022-12-22T02:11:27.374Z,2.90
2022-12-22T02:14:17.768Z,2.90
2022-12-22T02:17:09.143Z,2.90
2022-12-22T02:20:04.854Z,2.90
2022-12-22T02:22:53.925Z,2.90
2022-12-22T02:25:44.187Z,2.80
2022-12-22T02:28:31.827Z,2.80
2022-12-22T02:31:17.579Z,2.80
2022-12-22T02:34:03.369Z,2.80
2022-12-22T02:36:52.239Z,2.90
2022-12-22T02:39:43.694Z,2.90
2022-12-22T02:42:32.949Z,2.90
2022-12-22T02:45:25.015Z,2.80
2022-12-22T02:48:14.307Z,2.90
2022-12-22T02:51:00.930Z,2.80
2022-12-22T02:53:47.664Z,2.90
2022-12-22T02:56:35.537Z,2.90
2022-12-22T02:59:21.256Z,2.90
2022-12-22T03:02:08.216Z,2.80
2022-12-22T03:04:53.938Z,2.80
2022-12-22T03:07:39.653Z,2.80
2022-12-22T03:10:25.822Z,2.80
2022-12-22T03:13:11.636Z,2.80
2022-12-22T03:15:56.973Z,2.80
2022-12-22T03:18:43.914Z,2.80
2022-12-22T03:21:29.519Z,2.70
2022-12-22T03:24:15.487Z,2.70
2022-12-22T03:26:43.651Z,2.70
2022-12-22T03:29:11.851Z,2.70
2022-12-22T03:31:40.283Z,2.70
2022-12-22T03:34:09.947Z,2.80
2022-12-22T03:36:38.114Z,2.70
2022-12-22T03:39:06.317Z,2.80
2022-12-22T03:41:52.248Z,2.70
2022-12-22T03:44:37.870Z,2.70
2022-12-22T03:47:06.068Z,2.70
2022-12-22T03:49:35.797Z,2.70
2022-12-22T03:52:04.025Z,2.70
2022-12-22T03:54:32.188Z,2.70
2022-12-22T03:57:02.178Z,2.70
2022-12-22T03:59:30.400Z,2.70
2022-12-22T04:01:58.641Z,2.70
2022-12-22T04:04:27.732Z,2.70
2022-12-22T04:06:57.542Z,2.70
2022-12-22T04:09:27.445Z,2.70
2022-12-22T04:12:13.082Z,2.70
2022-12-22T04:14:41.225Z,2.60
2022-12-22T04:17:10.996Z,2.70
2022-12-22T04:19:39.194Z,2.70
2022-12-22T04:22:08.966Z,2.70
2022-12-22T04:24:37.237Z,2.70
2022-12-22T04:27:05.358Z,2.70
2022-12-22T04:29:33.622Z,2.70
2022-12-22T04:32:01.874Z,2.60
2022-12-22T04:34:30.129Z,2.70
2022-12-22T04:37:06.994Z,2.60
2022-12-22T04:39:42.637Z,2.70
2022-12-22T04:42:10.745Z,2.70
2022-12-22T04:44:38.979Z,2.60
2022-12-22T04:47:10.008Z,2.60
2022-12-22T04:49:40.152Z,2.60
2022-12-22T04:52:08.446Z,2.60
2022-12-22T04:54:36.847Z,2.60
2022-12-22T04:57:06.595Z,2.60
2022-12-22T04:59:34.747Z,2.60
2022-12-22T05:02:02.990Z,2.50
2022-12-22T05:04:34.112Z,2.50
2022-12-22T05:07:02.456Z,2.60
2022-12-22T05:09:30.829Z,2.50
2022-12-22T05:11:58.974Z,2.50
2022-12-22T05:14:30.968Z,2.50
2022-12-22T05:16:59.249Z,2.50
2022-12-22T05:19:30.931Z,2.40
2022-12-22T05:21:59.299Z,2.40
2022-12-22T05:24:27.514Z,2.50
2022-12-22T05:26:57.846Z,2.40
2022-12-22T05:29:26.006Z,2.40
2022-12-22T05:31:55.714Z,2.40
2022-12-22T05:34:23.930Z,2.30
2022-12-22T05:36:52.039Z,2.40
2022-12-22T05:39:20.364Z,2.40
2022-12-22T05:41:48.508Z,2.40
2022-12-22T05:44:16.661Z,2.40
2022-12-22T05:46:45.078Z,2.50
2022-12-22T05:49:14.922Z,2.50
2022-12-22T05:51:43.057Z,2.40
2022-12-22T05:54:11.207Z,2.50
2022-12-22T05:56:39.547Z,2.40
2022-12-22T05:59:07.740Z,2.50
2022-12-22T06:01:35.854Z,2.50
2022-12-22T06:04:04.397Z,2.50
2022-12-22T06:06:34.050Z,2.50
2022-12-22T06:09:02.345Z,2.50
2022-12-22T06:11:30.551Z,2.50
2022-12-22T06:13:58.754Z,2.60
2022-12-22T06:16:27.137Z,2.60
2022-12-22T06:18:55.370Z,2.60
2022-12-22T06:21:23.530Z,2.60
2022-12-22T06:23:55.124Z,2.60
2022-12-22T06:26:23.268Z,2.60
2022-12-22T06:28:51.639Z,2.60
2022-12-22T06:31:19.863Z,2.60
2022-12-22T06:33:48.741Z,2.60
2022-12-22T06:36:16.952Z,2.60
2022-12-22T06:38:45.086Z,2.70
2022-12-22T06:41:14.715Z,2.60
2022-12-22T06:43:42.042Z,2.60
2022-12-22T06:46:10.288Z,2.70
2022-12-22T06:48:38.451Z,2.60
2022-12-22T06:51:06.844Z,2.60
2022-12-22T06:53:34.958Z,2.50
2022-12-22T06:56:03.099Z,2.50
2022-12-22T06:58:32.722Z,2.50
2022-12-22T07:01:01.129Z,2.40
2022-12-22T07:03:29.646Z,2.40
2022-12-22T07:05:57.848Z,2.40
2022-12-22T07:08:26.051Z,2.40
2022-12-22T07:11:00.295Z,2.30
2022-12-22T07:13:29.352Z,2.40
2022-12-22T07:16:01.186Z,2.40
2022-12-22T07:18:33.034Z,2.40
2022-12-22T07:21:01.555Z,2.50
2022-12-22T07:23:30.256Z,2.50
2022-12-22T07:25:58.655Z,2.50
2022-12-22T07:28:26.937Z,2.50
2022-12-22T07:30:55.579Z,2.40
2022-12-22T07:33:25.318Z,2.40
2022-12-22T07:36:01.642Z,2.40
2022-12-22T07:38:29.988Z,2.40
2022-12-22T07:41:04.881Z,2.50
2022-12-22T07:43:32.256Z,2.50
2022-12-22T07:46:00.708Z,2.50
2022-12-22T07:48:47.881Z,2.50
2022-12-22T07:51:16.023Z,2.60
2022-12-22T07:53:44.351Z,2.50
2022-12-22T07:56:12.446Z,2.50
2022-12-22T07:58:40.620Z,2.50
2022-12-22T08:01:08.751Z,2.50
2022-12-22T08:03:38.322Z,2.50
2022-12-22T08:06:06.809Z,2.50
2022-12-22T08:08:35.317Z,2.50
2022-12-22T08:11:03.615Z,2.50
2022-12-22T08:13:31.774Z,2.50
2022-12-22T08:16:05.251Z,2.50
2022-12-22T08:18:33.912Z,2.50
2022-12-22T08:21:06.683Z,2.60
2022-12-22T08:23:35.381Z,2.60
2022-12-22T08:26:05.834Z,2.60
2022-12-22T08:28:35.404Z,2.60
2022-12-22T08:31:03.923Z,2.60
2022-12-22T08:33:32.279Z,2.60
2022-12-22T08:36:07.543Z,2.60
2022-12-22T08:38:37.818Z,2.60
2022-12-22T08:41:06.322Z,2.60
2022-12-22T08:43:35.125Z,2.70
2022-12-22T08:46:03.323Z,2.60
2022-12-22T08:48:31.478Z,2.70
2022-12-22T08:50:59.902Z,2.60
2022-12-22T08:54:03.388Z,2.60
2022-12-22T08:56:17.768Z,2.60
2022-12-22T08:58:45.998Z,2.70
2022-12-22T09:01:17.120Z,2.70
2022-12-22T09:03:51.058Z,2.70
2022-12-22T09:06:23.779Z,2.70
2022-12-22T09:08:55.885Z,2.70
2022-12-22T09:11:25.691Z,2.70
2022-12-22T09:13:54.517Z,2.70
2022-12-22T09:16:23.526Z,2.70
2022-12-22T09:18:51.814Z,2.70
2022-12-22T09:21:20.095Z,2.60
2022-12-22T09:23:48.253Z,2.60
2022-12-22T09:26:17.712Z,2.70
2022-12-22T09:28:50.543Z,2.70
2022-12-22T09:31:19.947Z,2.70
2022-12-22T09:33:48.475Z,2.80
2022-12-22T09:36:18.161Z,2.80
2022-12-22T09:38:46.443Z,2.70
2022-12-22T09:41:19.317Z,2.70
2022-12-22T09:43:49.235Z,2.80
2022-12-22T09:46:21.481Z,2.80
2022-12-22T09:48:53.561Z,2.80
2022-12-22T09:51:26.662Z,2.80
2022-12-22T09:53:56.695Z,2.80
2022-12-22T09:56:26.331Z,2.90
2022-12-22T09:58:58.775Z,2.90
2022-12-22T10:01:33.545Z,2.80
2022-12-22T10:04:06.772Z,2.90
2022-12-22T10:06:37.987Z,2.90
2022-12-22T10:09:48.340Z,2.90
2022-12-22T10:12:15.079Z,3.00
2022-12-22T10:14:45.486Z,2.90
2022-12-22T10:17:21.227Z,3.00
2022-12-22T10:19:50.590Z,3.00
2022-12-22T10:22:21.468Z,3.00
2022-12-22T10:24:49.607Z,3.10
2022-12-22T10:27:19.521Z,3.10
2022-12-22T10:29:53.459Z,3.10
2022-12-22T10:32:24.760Z,3.10
2022-12-22T10:35:00.676Z,3.10
2022-12-22T10:37:32.995Z,3.10
2022-12-22T10:40:13.007Z,3.10
2022-12-22T10:42:47.627Z,3.10
2022-12-22T10:45:24.285Z,3.10
2022-12-22T10:47:54.116Z,3.10
2022-12-22T10:50:23.197Z,3.00
2022-12-22T10:52:52.357Z,3.00
2022-12-22T10:55:22.508Z,3.00
2022-12-22T10:57:50.836Z,3.10
2022-12-22T11:00:30.378Z,3.10
2022-12-22T11:03:00.014Z,3.10
2022-12-22T11:05:28.933Z,3.20
2022-12-22T11:07:57.624Z,3.20
2022-12-22T11:10:31.933Z,3.20
2022-12-22T11:13:09.023Z,3.20
2022-12-22T11:15:44.488Z,3.20
2022-12-22T11:18:22.034Z,3.20
2022-12-22T11:20:56.352Z,3.20
2022-12-22T11:23:28.680Z,3.20
2022-12-22T11:26:01.275Z,3.20
2022-12-22T11:28:43.440Z,3.20
2022-12-22T11:31:22.705Z,3.20
2022-12-22T11:33:56.882Z,3.20
2022-12-22T11:36:28.855Z,3.20
2022-12-22T11:38:59.937Z,3.20
2022-12-22T11:41:35.148Z,3.20
2022-12-22T11:44:11.182Z,3.20
2022-12-22T11:46:46.302Z,3.20
2022-12-22T11:49:34.987Z,3.20
2022-12-22T11:52:08.669Z,3.20
2022-12-22T11:54:42.500Z,3.20
2022-12-22T11:57:15.399Z,3.20
2022-12-22T11:59:47.466Z,3.30
2022-12-22T12:02:27.217Z,3.30
2022-12-22T12:05:13.256Z,3.30
2022-12-22T12:07:42.622Z,3.30
2022-12-22T12:10:16.561Z,3.30
2022-12-22T12:12:50.991Z,3.30
2022-12-22T12:15:24.473Z,3.30
2022-12-22T12:18:04.430Z,3.30
2022-12-22T12:20:44.474Z,3.30
2022-12-22T12:23:20.537Z,3.30
2022-12-22T12:25:54.674Z,3.30
2022-12-22T12:28:25.399Z,3.30
2022-12-22T12:30:55.271Z,3.30
2022-12-22T12:33:33.059Z,3.30
2022-12-22T12:36:04.239Z,3.30
2022-12-22T12:39:06.914Z,3.30
2022-12-22T12:41:28.343Z,3.30
2022-12-22T12:43:58.196Z,3.30
2022-12-22T12:46:46.765Z,3.30
2022-12-22T12:49:33.551Z,3.30
2022-12-22T12:52:03.818Z,3.30
2022-12-22T12:54:40.535Z,3.30
2022-12-22T12:57:13.323Z,3.40
2022-12-22T12:59:47.932Z,3.30
2022-12-22T13:02:36.055Z,3.40
2022-12-22T13:05:22.046Z,3.40
2022-12-22T13:08:08.098Z,3.40
2022-12-22T13:10:37.841Z,3.40
2022-12-22T13:13:06.061Z,3.40
2022-12-22T13:15:35.325Z,3.40
2022-12-22T13:18:04.272Z,3.40
2022-12-22T13:20:36.717Z,3.40
2022-12-22T13:23:11.242Z,3.40
2022-12-22T13:25:44.804Z,3.40
2022-12-22T13:28:16.022Z,3.40
2022-12-22T13:30:47.187Z,3.40
2022-12-22T13:33:17.097Z,3.40
2022-12-22T13:35:49.230Z,3.40
2022-12-22T13:38:30.592Z,3.40
2022-12-22T13:41:00.978Z,3.40
2022-12-22T13:43:30.854Z,3.40
2022-12-22T13:46:00.209Z,3.40
2022-12-22T13:48:31.239Z,3.40
2022-12-22T13:51:01.018Z,3.40
2022-12-22T13:56:21.771Z,3.40
2022-12-22T13:58:53.065Z,3.40
2022-12-22T14:01:21.679Z,3.40
2022-12-22T14:04:00.889Z,3.40
2022-12-22T14:06:32.210Z,3.50
2022-12-22T14:09:17.306Z,3.40
2022-12-22T14:11:51.971Z,3.40
2022-12-22T14:14:23.411Z,3.40
2022-12-22T14:16:52.854Z,3.40
2022-12-22T14:19:22.073Z,3.40
2022-12-22T14:21:52.442Z,3.40
2022-12-22T14:24:22.982Z,3.50
2022-12-22T14:26:53.289Z,3.50
2022-12-22T14:29:24.412Z,3.50
2022-12-22T14:31:54.541Z,3.40
2022-12-22T14:34:29.225Z,3.40
2022-12-22T14:37:00.302Z,3.40
2022-12-22T14:39:31.531Z,3.40
2022-12-22T14:42:02.411Z,3.40
2022-12-22T14:44:33.918Z,3.40
2022-12-22T14:47:17.737Z,3.40
2022-12-22T14:49:53.158Z,3.40
2022-12-22T14:52:26.508Z,3.40
2022-12-22T14:54:55.237Z,3.40
2022-12-22T14:57:32.734Z,3.40
2022-12-22T15:00:02.630Z,3.40
2022-12-22T15:02:38.569Z,3.30
2022-12-22T15:05:16.853Z,3.40
2022-12-22T15:10:39.633Z,3.30
2022-12-22T15:13:13.423Z,3.30
2022-12-22T15:15:41.724Z,3.30
2022-12-22T15:18:14.786Z,3.30
2022-12-22T15:20:44.953Z,3.30
2022-12-22T15:23:17.247Z,3.30
2022-12-22T15:25:47.702Z,3.30
2022-12-22T15:28:17.480Z,3.30
2022-12-22T15:30:46.119Z,3.30
2022-12-22T15:33:15.208Z,3.30
2022-12-22T15:35:43.785Z,3.20
2022-12-22T15:38:14.954Z,3.20
2022-12-22T15:40:43.445Z,3.20
2022-12-22T15:43:53.862Z,3.20
2022-12-22T15:46:05.214Z,3.10
2022-12-22T15:48:35.047Z,3.10
2022-12-22T15:51:03.827Z,3.20
2022-12-22T15:53:33.202Z,3.10
2022-12-22T15:56:04.327Z,3.10
2022-12-22T15:58:33.331Z,3.10
2022-12-22T16:01:01.685Z,3.00
2022-12-22T16:03:31.600Z,3.10
2022-12-22T16:06:00.899Z,3.10
2022-12-22T16:08:30.375Z,3.00
2022-12-22T16:10:58.910Z,3.00
2022-12-22T16:13:28.820Z,3.00
2022-12-22T16:15:57.940Z,3.00
2022-12-22T16:18:26.374Z,3.00
2022-12-22T16:20:56.358Z,3.00
2022-12-22T16:23:25.486Z,3.00
2022-12-22T16:26:00.853Z,3.00
2022-12-22T16:28:31.216Z,3.00
2022-12-22T16:31:00.583Z,3.00
2022-12-22T16:33:29.134Z,3.00
2022-12-22T16:35:58.842Z,3.00
2022-12-22T16:38:27.039Z,3.00
2022-12-22T16:40:55.313Z,3.00
2022-12-22T16:46:14.121Z,3.00
2022-12-22T16:48:43.683Z,3.00
2022-12-22T16:51:17.285Z,3.00
2022-12-22T16:53:45.745Z,3.00
2022-12-22T16:56:15.963Z,3.00
2022-12-22T16:58:44.218Z,3.00
2022-12-22T17:01:20.030Z,3.00
2022-12-22T17:03:48.372Z,3.00
2022-12-22T17:06:18.092Z,3.00
2022-12-22T17:08:47.711Z,3.00
2022-12-22T17:11:19.498Z,3.00
2022-12-22T17:13:47.826Z,3.00
2022-12-22T17:16:20.157Z,3.00
2022-12-22T17:18:48.738Z,2.90
2022-12-22T17:21:26.991Z,2.90
2022-12-22T17:23:55.835Z,2.90
2022-12-22T17:26:26.123Z,2.90
2022-12-22T17:28:54.449Z,2.90
2022-12-22T17:31:23.550Z,2.90
2022-12-22T17:33:51.730Z,2.90
2022-12-22T17:36:26.375Z,2.90
2022-12-22T17:38:56.107Z,2.90
2022-12-22T17:41:24.584Z,2.90
2022-12-22T17:43:52.834Z,2.90
2022-12-22T17:46:21.899Z,2.90
2022-12-22T17:48:50.345Z,2.90
2022-12-22T17:51:20.206Z,2.90
2022-12-22T17:53:48.581Z,2.90
2022-12-22T17:56:19.713Z,2.90
2022-12-22T17:58:48.087Z,2.90
2022-12-22T18:01:26.461Z,2.90
2022-12-22T18:03:55.142Z,2.90
2022-12-22T18:06:25.419Z,2.90
2022-12-22T18:08:54.687Z,2.90
2022-12-22T18:11:24.873Z,2.90
2022-12-22T18:13:56.345Z,2.90
2022-12-22T18:16:24.531Z,2.90
2022-12-22T18:18:53.104Z,2.90
2022-12-22T18:21:22.007Z,2.90
2022-12-22T18:23:51.209Z,2.90
2022-12-22T18:26:25.920Z,2.90
2022-12-22T18:28:54.093Z,2.90
2022-12-22T18:31:25.957Z,2.80
2022-12-22T18:33:54.495Z,2.80
2022-12-22T18:36:27.046Z,2.80
2022-12-22T18:38:55.405Z,2.80
2022-12-22T18:41:25.901Z,2.80
2022-12-22T18:43:54.222Z,2.80
2022-12-22T18:46:25.172Z,2.80
2022-12-22T18:48:55.785Z,2.80
2022-12-22T18:51:27.533Z,2.80
2022-12-22T18:53:57.256Z,2.80
2022-12-22T18:56:26.873Z,2.80
2022-12-22T18:58:55.029Z,2.80
2022-12-22T19:01:24.160Z,2.80
2022-12-22T19:03:53.994Z,2.80
2022-12-22T19:06:23.118Z,2.80
2022-12-22T19:08:51.315Z,2.80
2022-12-22T19:11:21.156Z,2.70
2022-12-22T19:13:51.699Z,2.70
2022-12-22T19:16:21.010Z,2.70
2022-12-22T19:18:49.330Z,2.70
2022-12-22T19:21:18.288Z,2.70
2022-12-22T19:23:46.714Z,2.80
2022-12-22T19:26:19.014Z,2.80
2022-12-22T19:28:47.719Z,2.80
2022-12-22T19:31:22.115Z,2.70
2022-12-22T19:33:50.544Z,2.70
2022-12-22T19:36:19.987Z,2.70
2022-12-22T19:39:04.091Z,2.70
2022-12-22T19:41:36.307Z,2.70
2022-12-22T19:44:04.757Z,2.70
2022-12-22T19:46:35.527Z,2.70
2022-12-22T19:49:03.925Z,2.70
2022-12-22T19:51:32.715Z,2.70
2022-12-22T19:54:00.884Z,2.70
2022-12-22T19:56:29.960Z,2.70
2022-12-22T19:58:59.703Z,2.70
2022-12-22T20:01:28.009Z,2.70
2022-12-22T20:03:57.745Z,2.70
2022-12-22T20:06:26.072Z,2.70
2022-12-22T20:08:54.327Z,2.70
2022-12-22T20:11:22.530Z,2.70
2022-12-22T20:13:50.840Z,2.70
2022-12-22T20:16:19.053Z,2.70
2022-12-22T20:18:50.306Z,2.70
2022-12-22T20:21:24.042Z,2.70
2022-12-22T20:23:53.152Z,2.70
2022-12-22T20:26:22.248Z,2.70
2022-12-22T20:28:50.928Z,2.70
2022-12-22T20:31:20.594Z,2.70
2022-12-22T20:33:49.017Z,2.70
2022-12-22T20:36:20.145Z,2.70
2022-12-22T20:38:50.360Z,2.70
2022-12-22T20:41:18.627Z,2.70
2022-12-22T20:43:48.918Z,2.70
2022-12-22T20:46:20.484Z,2.70
2022-12-22T20:48:50.208Z,2.70
2022-12-22T20:51:19.899Z,2.60
2022-12-22T20:53:50.200Z,2.70
2022-12-22T20:56:28.019Z,2.70
2022-12-22T20:58:56.333Z,2.70
2022-12-22T21:01:24.598Z,2.70
2022-12-22T21:03:53.012Z,2.70
2022-12-22T21:06:25.625Z,2.70
2022-12-22T21:08:56.019Z,2.70
2022-12-22T21:11:29.221Z,2.70
2022-12-22T21:13:58.005Z,2.70
2022-12-22T21:16:28.033Z,2.70
2022-12-22T21:18:56.710Z,2.70
2022-12-22T21:21:24.926Z,2.60
2022-12-22T21:23:53.097Z,2.70
2022-12-22T21:26:24.427Z,2.60
2022-12-22T21:28:53.048Z,2.60
2022-12-22T21:31:21.327Z,2.60
2022-12-22T21:33:50.464Z,2.60
2022-12-22T21:36:22.641Z,2.60
2022-12-22T21:38:53.343Z,2.60
2022-12-22T21:41:44.025Z,2.70
2022-12-22T21:44:13.512Z,2.70
2022-12-22T21:46:42.088Z,2.60
2022-12-22T21:49:14.772Z,2.60
2022-12-22T21:51:43.843Z,2.60
2022-12-22T21:54:12.008Z,2.50
2022-12-22T21:56:41.623Z,2.50
2022-12-22T21:59:12.392Z,2.40
2022-12-22T22:01:41.403Z,2.40
2022-12-22T22:04:09.617Z,2.50
2022-12-22T22:06:38.047Z,2.50
2022-12-22T22:09:07.284Z,2.50
2022-12-22T22:11:59.679Z,2.50
2022-12-22T22:14:29.278Z,2.50
2022-12-22T22:16:57.535Z,2.40
2022-12-22T22:19:25.659Z,2.40
2022-12-22T22:21:53.952Z,2.30
2022-12-22T22:24:22.274Z,2.30
2022-12-22T22:26:54.203Z,2.30
2022-12-22T22:29:22.475Z,2.30
2022-12-22T22:31:52.057Z,2.30
2022-12-22T22:34:20.369Z,2.40
2022-12-22T22:36:48.534Z,2.30
2022-12-22T22:39:16.794Z,2.30
2022-12-22T22:41:45.115Z,2.30
2022-12-22T22:44:13.686Z,2.30
2022-12-22T22:46:41.974Z,2.30
2022-12-22T22:49:11.596Z,2.30
2022-12-22T22:51:39.762Z,2.20
2022-12-22T22:54:08.106Z,2.30
2022-12-22T22:56:39.066Z,2.40
2022-12-22T22:59:07.247Z,2.40
2022-12-22T23:01:35.477Z,2.40
2022-12-22T23:04:04.053Z,2.40
2022-12-22T23:06:34.050Z,2.40
2022-12-22T23:09:02.368Z,2.40
2022-12-22T23:11:30.474Z,2.40
2022-12-22T23:13:58.631Z,2.30
2022-12-22T23:16:29.553Z,2.30
2022-12-22T23:19:02.020Z,2.30
2022-12-22T23:21:30.311Z,2.20
2022-12-22T23:23:59.903Z,2.20
2022-12-22T23:26:28.067Z,2.20
2022-12-22T23:29:02.649Z,2.20
2022-12-22T23:31:32.596Z,2.20
2022-12-22T23:34:01.068Z,2.20
2022-12-22T23:36:29.698Z,2.10
2022-12-22T23:38:59.646Z,2.20
2022-12-22T23:41:30.795Z,2.10
2022-12-22T23:43:59.091Z,2.20
2022-12-22T23:46:27.474Z,2.10
2022-12-22T23:48:56.587Z,2.10
2022-12-22T23:51:26.748Z,2.10
2022-12-22T23:53:55.165Z,2.10
2022-12-22T23:56:25.033Z,2.10
2022-12-22T23:58:55.172Z,2.10
